This is the latest recevied weather packets stored in our database for station/object N3SBK. If no packets are shown the sender has not sent any weather packets the latest 10 day(s).
| Time | Temp. | Humidity | Pressure | Rain* | Wind** | Luminosity | Snow |
|---|---|---|---|---|---|---|---|
| 1776969554 | 24.44° C | 48% | 1006.1 hPa | 0 mm | - | 173 W/m² | - |
| 1776969249 | 23.89° C | 49% | 1006.2 hPa | 0 mm | - | 679 W/m² | - |
| 1776968946 | 22.78° C | 53% | 1006.1 hPa | 0 mm | - | 625 W/m² | - |
| 1776968645 | 23.89° C | 49% | 1006.3 hPa | 0 mm | - | 174 W/m² | - |
| 1776968342 | 24.44° C | 48% | 1006.3 hPa | 0 mm | - | 160 W/m² | - |
| 1776968038 | 24.44° C | 49% | 1006.2 hPa | 0 mm | - | 723 W/m² | - |
| 1776967735 | 23.89° C | 51% | 1006.4 hPa | 0 mm | - | 642 W/m² | - |
| 1776967431 | 23.33° C | 50% | 1006.2 hPa | 0 mm | - | 668 W/m² | - |
| 1776967129 | 22.78° C | 54% | 1006.5 hPa | 0 mm | - | 715 W/m² | - |
| 1776966824 | 22.22° C | 55% | 1006.5 hPa | 0 mm | - | 726 W/m² | - |
| 1776966521 | 22.78° C | 54% | 1006.5 hPa | 0 mm | - | 302 W/m² | - |
| 1776966217 | 23.33° C | 52% | 1006.3 hPa | 0 mm | - | 441 W/m² | - |
| 1776965912 | 22.78° C | 54% | 1006.5 hPa | 0 mm | - | 401 W/m² | - |
| 1776965610 | 21.67° C | 56% | 1006.8 hPa | 0 mm | - | 737 W/m² | - |
| 1776965308 | 21.67° C | 57% | 1006.7 hPa | 0 mm | - | 202 W/m² | - |
| 1776965006 | 21.67° C | 56% | 1006.9 hPa | 0 mm | - | 198 W/m² | - |
| 1776964700 | 22.22° C | 54% | 1006.7 hPa | 0 mm | - | 194 W/m² | - |
| 1776964400 | 21.67° C | 55% | 1007 hPa | 0 mm | - | 718 W/m² | - |
| 1776964099 | 21.67° C | 54% | 1007 hPa | 0 mm | - | 198 W/m² | - |
| 1776963799 | 21.67° C | 55% | 1007.2 hPa | 0 mm | - | 174 W/m² | - |
| 1776963498 | 21.67° C | 54% | 1007.1 hPa | 0 mm | - | 175 W/m² | - |
| 1776963195 | 21.67° C | 54% | 1007.2 hPa | 0 mm | - | 689 W/m² | - |
| 1776962891 | 22.22° C | 53% | 1007.4 hPa | 0 mm | - | 249 W/m² | - |
| 1776962587 | 22.78° C | 49% | 1007.3 hPa | 0 mm | - | 178 W/m² | - |
| 1776962286 | 23.33° C | 48% | 1007.4 hPa | 0 mm | - | 854 W/m² | - |
* Rain latest hour (hover to see other rain measurements)
** Current wind speed in m/s (hover to see current wind gust speed)